Time;durP1;ratioP1;P1;durP2;ratioP2;P2;SDS_P1;SDS_P2;PMS_P1;PMS_P2;Temp;Humidity;BMP_temperature;BMP_pressure;BME280_temperature;BME280_humidity;BME280_pressure;Samples;Min_cycle;Max_cycle;Signal;HPM_P1;HPM_P2
2022/04/06 00:00:05;;;;;;;2.80;1.10;;;;;;;19.28;34.45;100479.94;16138287;19;131360;-47
2022/04/06 00:05:27;;;;;;;5.68;0.93;;;;;;;19.23;34.42;100472.41;16141248;19;129531;-45
2022/04/06 00:10:49;;;;;;;4.95;1.10;;;;;;;19.22;34.32;100470.75;16142273;19;130212;-43
2022/04/06 00:16:10;;;;;;;3.83;1.00;;;;;;;19.20;34.23;100456.28;16141747;19;130490;-44
2022/04/06 00:21:32;;;;;;;2.40;0.90;;;;;;;19.19;34.16;100457.38;16138358;19;129626;-47
2022/04/06 00:26:54;;;;;;;3.63;1.13;;;;;;;19.17;34.09;100459.56;16141701;19;129329;-45
2022/04/06 00:32:16;;;;;;;2.20;0.80;;;;;;;19.14;33.98;100454.56;16142722;19;129572;-44
2022/04/06 00:37:38;;;;;;;2.22;0.80;;;;;;;19.12;34.13;100446.50;16139084;19;129058;-44
2022/04/06 00:43:04;;;;;;;3.88;1.13;;;;;;;19.10;34.42;100437.59;16136235;19;129923;-44
2022/04/06 00:48:26;;;;;;;3.22;1.20;;;;;;;19.07;33.99;100441.75;16134919;19;129259;-44
2022/04/06 00:53:48;;;;;;;4.28;0.90;;;;;;;19.06;34.42;100430.91;16137057;19;130103;-45
2022/04/06 00:59:10;;;;;;;2.85;0.98;;;;;;;19.04;34.13;100428.41;16134831;19;130200;-44
2022/04/06 01:04:32;;;;;;;4.57;1.13;;;;;;;19.03;34.04;100426.72;16139169;19;130525;-47
2022/04/06 01:09:54;;;;;;;5.72;0.88;;;;;;;19.00;34.13;100424.47;16138093;19;129270;-45
2022/04/06 01:15:16;;;;;;;2.42;1.00;;;;;;;18.99;33.99;100424.75;16138519;19;129289;-42
2022/04/06 01:20:38;;;;;;;2.42;0.90;;;;;;;18.97;34.15;100424.16;16135151;19;130782;-42
2022/04/06 01:26:00;;;;;;;4.40;1.10;;;;;;;18.96;34.18;100426.06;16137314;19;131461;-42
2022/04/06 01:31:22;;;;;;;4.15;1.20;;;;;;;18.93;34.12;100415.53;16136605;19;129499;-44
2022/04/06 01:36:44;;;;;;;6.20;0.82;;;;;;;18.91;34.33;100417.72;16135270;19;128908;-45
2022/04/06 01:42:08;;;;;;;2.83;1.00;;;;;;;18.89;33.94;100403.28;16133115;19;129796;-42
2022/04/06 01:47:29;;;;;;;6.82;0.98;;;;;;;18.87;34.10;100408.25;16133362;19;129518;-42
2022/04/06 01:52:51;;;;;;;4.53;1.13;;;;;;;18.86;34.32;100409.34;16135383;19;130566;-43
2022/04/06 01:58:13;;;;;;;4.35;0.88;;;;;;;18.85;34.23;100399.34;16133483;19;129283;-46
2022/04/06 02:03:35;;;;;;;3.30;1.10;;;;;;;18.82;33.89;100397.94;16131119;19;129594;-44
2022/04/06 02:08:56;;;;;;;5.28;0.85;;;;;;;18.80;34.10;100382.69;16130399;19;129428;-43
2022/04/06 02:14:18;;;;;;;2.88;0.90;;;;;;;18.78;34.32;100382.94;16144733;19;129943;-44
2022/04/06 02:19:40;;;;;;;3.88;1.00;;;;;;;18.77;34.07;100376.56;16146090;19;129201;-44
2022/04/06 02:25:02;;;;;;;4.50;1.00;;;;;;;18.75;33.91;100373.22;16147181;19;129851;-45
2022/04/06 02:30:24;;;;;;;2.78;1.00;;;;;;;18.74;33.92;100367.94;16147647;19;129357;-45
2022/04/06 02:35:46;;;;;;;3.63;1.10;;;;;;;18.73;34.31;100372.63;16147266;19;129533;-43
2022/04/06 02:41:08;;;;;;;2.65;1.00;;;;;;;18.71;33.87;100371.22;16144888;19;131801;-45
2022/04/06 02:46:30;;;;;;;3.17;1.00;;;;;;;18.69;33.90;100376.19;16142778;19;131060;-42
2022/04/06 02:51:52;;;;;;;2.78;0.80;;;;;;;18.68;34.10;100361.50;16144683;19;130390;-43
2022/04/06 02:57:14;;;;;;;2.58;0.88;;;;;;;18.67;34.15;100356.22;16143766;19;129278;-43
2022/04/06 03:02:36;;;;;;;3.35;0.80;;;;;;;18.64;33.96;100346.50;16142097;19;129410;-42
2022/04/06 03:07:58;;;;;;;3.72;0.98;;;;;;;18.64;33.91;100342.91;16145127;19;129749;-42
2022/04/06 03:13:20;;;;;;;3.60;1.00;;;;;;;18.61;34.26;100341.47;16144749;19;131989;-42
2022/04/06 03:18:42;;;;;;;2.40;0.90;;;;;;;18.60;33.96;100334.25;16145182;19;131442;-47
2022/04/06 03:24:04;;;;;;;3.47;0.77;;;;;;;18.58;33.94;100336.47;16136874;19;129725;-42
2022/04/06 03:29:26;;;;;;;5.32;1.13;;;;;;;18.57;34.15;100335.63;16143993;19;129108;-44
2022/04/06 03:34:48;;;;;;;3.10;1.15;;;;;;;18.56;34.01;100330.34;16144095;19;129588;-42
2022/04/06 03:40:10;;;;;;;3.28;1.10;;;;;;;18.54;33.94;100321.44;16141988;19;130475;-43
2022/04/06 03:45:32;;;;;;;3.35;0.70;;;;;;;18.54;33.76;100324.22;16139114;19;128945;-44
2022/04/06 03:50:55;;;;;;;3.03;0.82;;;;;;;18.53;34.09;100317.00;16142468;19;130854;-43
2022/04/06 03:56:17;;;;;;;2.00;0.80;;;;;;;18.50;33.79;100323.91;16143728;19;129642;-43
2022/04/06 04:01:38;;;;;;;4.38;0.90;;;;;;;18.49;34.09;100316.69;16136709;19;129198;-43
2022/04/06 04:07:01;;;;;;;2.63;0.73;;;;;;;18.47;34.24;100313.34;16133053;19;128969;-44
2022/04/06 04:12:23;;;;;;;2.67;1.00;;;;;;;18.48;34.12;100308.63;16140088;19;129718;-42
2022/04/06 04:17:45;;;;;;;3.08;0.63;;;;;;;18.46;33.89;100306.94;16140110;19;129443;-42
2022/04/06 04:23:06;;;;;;;2.88;0.88;;;;;;;18.45;33.89;100297.00;16136748;19;129676;-43
2022/04/06 04:28:28;;;;;;;2.88;0.90;;;;;;;18.44;34.11;100291.69;16140317;19;129022;-43
2022/04/06 04:33:50;;;;;;;3.90;0.85;;;;;;;18.43;34.05;100292.78;16139658;19;129390;-42
2022/04/06 04:39:12;;;;;;;2.35;0.90;;;;;;;18.41;34.17;100293.06;16140641;19;130073;-45
2022/04/06 04:44:34;;;;;;;3.13;0.95;;;;;;;18.40;33.77;100290.56;16133501;19;129354;-42
2022/04/06 04:49:57;;;;;;;3.38;1.20;;;;;;;18.39;33.95;100286.94;16139796;19;129637;-42
2022/04/06 04:55:19;;;;;;;3.35;1.00;;;;;;;18.37;34.15;100279.97;16138365;19;129765;-42
2022/04/06 05:00:40;;;;;;;2.13;0.70;;;;;;;18.35;34.22;100277.44;16131539;19;128897;-43
2022/04/06 05:06:02;;;;;;;3.08;0.88;;;;;;;18.37;34.19;100280.78;16137064;19;129361;-42
2022/04/06 05:11:24;;;;;;;3.00;0.80;;;;;;;18.58;33.90;100265.25;16136324;19;129873;-43
2022/04/06 05:16:46;;;;;;;13.98;1.55;;;;;;;18.95;33.76;100269.22;16133407;19;129948;-43
2022/04/06 05:22:08;;;;;;;4.65;1.10;;;;;;;19.31;33.08;100261.19;16132924;19;128963;-43
2022/04/06 05:27:31;;;;;;;9.57;1.40;;;;;;;19.75;32.92;100268.38;16135794;19;129449;-43
2022/04/06 05:32:55;;;;;;;4.95;1.23;;;;;;;20.06;32.08;100270.47;16136196;19;129976;-43
2022/04/06 05:38:17;;;;;;;4.65;0.98;;;;;;;20.24;31.87;100274.69;16135811;19;129796;-42
2022/04/06 05:43:39;;;;;;;5.57;1.30;;;;;;;20.32;31.71;100278.84;16130891;19;129000;-42
2022/04/06 05:49:00;;;;;;;3.78;1.33;;;;;;;20.28;32.06;100284.97;16145956;19;129451;-43
2022/04/06 05:54:22;;;;;;;2.53;0.90;;;;;;;20.23;31.94;100271.06;16148660;19;132496;-45
2022/04/06 05:59:44;;;;;;;4.28;0.90;;;;;;;20.14;32.24;100279.09;16148545;19;129120;-43
2022/04/06 06:05:06;;;;;;;7.35;1.10;;;;;;;20.09;31.99;100286.56;16142938;19;129693;-45
2022/04/06 06:10:28;;;;;;;3.78;1.20;;;;;;;19.96;32.13;100272.03;16148835;19;129405;-42
2022/04/06 06:15:50;;;;;;;2.92;0.80;;;;;;;19.85;32.58;100275.88;16149322;19;129324;-47
2022/04/06 06:21:12;;;;;;;2.78;0.80;;;;;;;19.74;32.54;100268.63;16147395;19;129091;-46
2022/04/06 06:26:35;;;;;;;2.80;0.82;;;;;;;19.62;32.79;100254.97;16148625;19;129363;-42
2022/04/06 06:31:56;;;;;;;3.33;1.08;;;;;;;19.53;32.81;100249.91;16146340;19;129379;-43
2022/04/06 06:37:18;;;;;;;2.80;0.90;;;;;;;19.48;32.41;100240.72;16145530;19;129161;-43
2022/04/06 06:42:40;;;;;;;3.08;0.88;;;;;;;19.47;32.40;100219.63;16140823;19;130158;-43
2022/04/06 06:48:03;;;;;;;3.75;1.20;;;;;;;19.55;32.27;100215.53;16143254;19;130116;-46
2022/04/06 06:53:24;;;;;;;2.28;0.77;;;;;;;19.73;32.30;100222.53;16148180;19;129601;-42
2022/04/06 06:58:47;;;;;;;4.60;0.90;;;;;;;19.87;32.13;100232.03;16145048;19;129371;-42
2022/04/06 07:04:08;;;;;;;3.80;0.80;;;;;;;20.00;32.00;100222.38;16141177;19;129405;-46
2022/04/06 07:09:30;;;;;;;2.53;0.70;;;;;;;20.10;31.86;100221.59;16143060;19;129343;-42
2022/04/06 07:14:52;;;;;;;3.38;0.80;;;;;;;20.18;31.92;100229.41;16144197;19;129140;-44
2022/04/06 07:20:14;;;;;;;3.30;0.70;;;;;;;20.25;31.23;100224.41;16139963;19;129705;-43
2022/04/06 07:25:36;;;;;;;1.98;0.70;;;;;;;20.32;31.38;100224.16;16138252;19;130261;-43
2022/04/06 07:30:57;;;;;;;2.65;0.80;;;;;;;20.37;31.29;100212.22;16143858;19;129834;-43
2022/04/06 07:36:24;;;;;;;2.88;0.65;;;;;;;20.39;31.47;100198.88;16142598;19;129813;-43
2022/04/06 07:41:45;;;;;;;3.22;0.90;;;;;;;20.43;31.45;100208.34;16143412;19;130460;-44
2022/04/06 07:47:07;;;;;;;4.07;0.80;;;;;;;20.48;31.45;100194.44;16140599;19;129477;-43
2022/04/06 07:52:30;;;;;;;1.83;0.70;;;;;;;20.51;31.45;100188.34;16142942;19;131276;-45
2022/04/06 07:57:52;;;;;;;2.05;0.80;;;;;;;20.56;31.55;100191.09;16140161;19;130576;-42
2022/04/06 08:03:14;;;;;;;3.47;0.98;;;;;;;20.56;31.02;100195.84;16140610;19;129361;-43
2022/04/06 08:08:35;;;;;;;1.50;0.60;;;;;;;20.52;31.18;100190.00;16139627;19;129737;-42
2022/04/06 08:13:57;;;;;;;1.35;0.57;;;;;;;20.45;31.64;100186.66;16142199;19;129526;-45
2022/04/06 08:19:19;;;;;;;2.30;0.95;;;;;;;20.37;31.64;100181.66;16140192;19;129349;-48
2022/04/06 08:24:41;;;;;;;2.33;0.55;;;;;;;20.26;31.89;100172.47;16134979;19;129618;-44
2022/04/06 08:30:04;;;;;;;5.65;0.75;;;;;;;20.18;31.93;100186.91;16139788;19;131487;-46
2022/04/06 08:35:27;;;;;;;4.03;0.63;;;;;;;20.06;32.21;100181.63;16139540;19;129243;-42
2022/04/06 08:40:49;;;;;;;4.47;0.70;;;;;;;19.95;32.38;100180.72;16137858;19;129653;-43
2022/04/06 08:46:11;;;;;;;2.95;0.60;;;;;;;19.87;31.99;100176.53;16136456;19;129631;-45
2022/04/06 08:51:34;;;;;;;4.80;0.80;;;;;;;19.81;32.58;100184.00;16139194;19;130823;-45
2022/04/06 08:56:56;;;;;;;2.58;0.68;;;;;;;19.76;32.50;100160.94;16135748;19;129496;-47
2022/04/06 09:02:21;;;;;;;1.95;0.65;;;;;;;19.74;32.27;100174.25;16133182;19;130122;-45
2022/04/06 09:07:43;;;;;;;1.45;0.52;;;;;;;19.80;32.60;100173.19;16138146;19;129221;-45
2022/04/06 09:13:18;;;;;;;3.20;0.80;;;;;;;19.89;32.30;100171.53;16137410;19;129664;-44
2022/04/06 09:18:43;;;;;;;3.13;0.70;;;;;;;19.99;31.91;100162.41;16131582;19;130123;-45
2022/04/06 09:24:05;;;;;;;4.43;0.75;;;;;;;20.06;32.05;100164.97;16131629;19;129303;-43
2022/04/06 09:29:27;;;;;;;5.07;0.82;;;;;;;20.13;31.96;100159.97;16137684;19;129154;-42
2022/04/06 09:34:49;;;;;;;3.17;1.00;;;;;;;20.20;31.45;100151.38;16138037;19;130949;-42
2022/04/06 09:40:11;;;;;;;6.15;1.00;;;;;;;20.25;31.75;100154.97;16135855;19;130359;-43
2022/04/06 09:51:17;;;;;;;1.85;0.70;;;;;;;20.35;31.17;100156.09;16134265;19;128883;-43
2022/04/06 09:56:41;;;;;;;5.43;0.90;;;;;;;20.36;30.91;100146.66;16136126;19;128926;-42
2022/04/06 10:02:09;;;;;;;3.72;0.80;;;;;;;20.38;30.81;100141.66;16131408;19;129495;-44
2022/04/06 10:07:31;;;;;;;5.25;0.90;;;;;;;20.40;31.28;100143.03;16133860;19;129900;-42
2022/04/06 10:12:56;;;;;;;2.60;0.80;;;;;;;20.45;31.85;100136.63;16131718;19;129752;-43
2022/04/06 10:18:40;;;;;;;3.63;0.68;;;;;;;20.48;32.30;100136.09;16134817;19;128956;-43
2022/04/06 10:24:47;;;;;;;3.00;0.90;;;;;;;20.45;32.45;100133.84;16127468;19;128938;-44
2022/04/06 10:30:20;;;;;;;6.05;0.77;;;;;;;20.47;32.58;100125.28;16123910;19;130815;-42
2022/04/06 10:35:42;;;;;;;4.25;0.95;;;;;;;20.46;32.85;100121.63;16133715;19;129178;-43
2022/04/06 10:41:07;;;;;;;6.10;1.00;;;;;;;20.41;33.40;100105.00;16139723;19;129346;-44
2022/04/06 10:46:50;;;;;;;3.30;0.80;;;;;;;20.35;33.39;100117.19;16133105;19;129805;-43
2022/04/06 10:52:23;;;;;;;4.10;0.63;;;;;;;20.28;33.85;100106.38;16136293;19;129440;-46
2022/04/06 10:58:00;;;;;;;5.47;0.82;;;;;;;20.19;34.33;100103.31;16137158;19;129861;-45
2022/04/06 11:03:23;;;;;;;3.05;0.65;;;;;;;20.13;34.66;100098.88;16138425;19;129230;-43
2022/04/06 11:14:31;;;;;;;3.03;0.80;;;;;;;19.98;35.17;100081.06;16141080;19;129996;-43
2022/04/06 11:19:53;;;;;;;3.53;0.80;;;;;;;19.96;35.41;100083.25;16146424;19;128783;-44
2022/04/06 11:25:23;;;;;;;1.90;0.35;;;;;;;19.99;35.72;100077.19;16141786;19;130394;-44
2022/04/06 11:30:45;;;;;;;3.47;0.57;;;;;;;20.06;35.83;100076.09;16146134;19;130236;-44
2022/04/06 11:36:15;;;;;;;2.47;0.70;;;;;;;20.14;35.47;100078.31;16145553;19;129977;-45
2022/04/06 11:41:42;;;;;;;2.25;0.50;;;;;;;20.22;35.76;100072.19;16144166;19;129318;-47
2022/04/06 11:47:04;;;;;;;1.60;0.50;;;;;;;20.31;35.77;100068.88;16136355;19;129452;-48
2022/04/06 11:52:27;;;;;;;2.85;0.60;;;;;;;20.35;35.78;100061.63;16141042;19;129603;-48
2022/04/06 11:57:49;;;;;;;1.50;0.52;;;;;;;20.39;35.60;100058.03;16144007;19;129106;-49
2022/04/06 12:03:10;;;;;;;2.10;0.60;;;;;;;20.45;36.06;100050.50;16139400;19;129674;-46
2022/04/06 12:08:34;;;;;;;3.42;0.50;;;;;;;20.49;36.00;100037.72;16142784;19;129013;-45
2022/04/06 12:13:56;;;;;;;3.05;0.40;;;;;;;20.53;35.71;100035.22;16143631;19;129679;-43
2022/04/06 12:19:20;;;;;;;1.55;0.50;;;;;;;20.57;36.11;100014.94;16140556;19;128932;-42
2022/04/06 12:24:43;;;;;;;1.80;0.50;;;;;;;20.60;35.84;100024.66;16139800;19;129798;-43
2022/04/06 12:30:08;;;;;;;1.50;0.50;;;;;;;20.63;35.94;100014.94;16143571;19;130466;-43
2022/04/06 12:35:30;;;;;;;0.87;0.30;;;;;;;20.65;35.78;100009.91;16141961;19;129393;-42
2022/04/06 12:41:06;;;;;;;1.02;0.35;;;;;;;20.69;35.82;100008.22;16140055;19;129744;-46
2022/04/06 12:46:45;;;;;;;1.80;0.30;;;;;;;20.70;35.90;100007.09;16135482;19;129640;-47
2022/04/06 12:52:13;;;;;;;0.88;0.40;;;;;;;20.68;35.94;99989.88;16139072;19;129658;-44
2022/04/06 12:57:37;;;;;;;1.85;0.50;;;;;;;20.64;36.11;99970.16;16140973;19;128965;-46
2022/04/06 13:03:00;;;;;;;0.70;0.30;;;;;;;20.59;36.05;99959.91;16135982;19;132281;-44
2022/04/06 13:08:22;;;;;;;1.48;0.40;;;;;;;20.52;35.96;99951.03;16137150;19;129273;-42
2022/04/06 13:13:44;;;;;;;1.35;0.45;;;;;;;20.44;36.31;99940.50;16137568;19;130838;-42
2022/04/06 13:19:07;;;;;;;1.10;0.30;;;;;;;20.36;36.55;99930.81;16136527;19;129259;-45
2022/04/06 13:24:28;;;;;;;0.93;0.40;;;;;;;20.31;36.75;99949.44;16135223;19;129461;-42
2022/04/06 13:29:52;;;;;;;1.58;0.52;;;;;;;20.21;36.66;99942.78;16138129;19;129291;-44
2022/04/06 13:35:15;;;;;;;1.45;0.40;;;;;;;20.14;37.12;99939.47;16136716;19;129400;-44
2022/04/06 13:40:37;;;;;;;1.05;0.30;;;;;;;20.06;36.67;99931.72;16137128;19;128983;-44
2022/04/06 13:45:59;;;;;;;1.30;0.40;;;;;;;19.97;37.20;99923.09;16132440;19;129744;-46
2022/04/06 13:51:21;;;;;;;0.80;0.50;;;;;;;19.91;37.16;99916.72;16129665;19;128936;-43
2022/04/06 13:56:44;;;;;;;0.55;0.20;;;;;;;19.86;37.19;99904.81;16136564;19;129531;-42
2022/04/06 14:02:06;;;;;;;0.73;0.20;;;;;;;19.81;37.53;99898.13;16132322;19;129264;-46
2022/04/06 14:07:28;;;;;;;1.20;0.32;;;;;;;19.77;37.50;99890.66;16134055;19;129155;-44
2022/04/06 14:12:50;;;;;;;0.70;0.40;;;;;;;19.75;37.63;99879.00;16151223;19;129294;-44
2022/04/06 14:18:12;;;;;;;1.25;0.45;;;;;;;19.79;37.39;99871.78;16151662;19;129568;-45
2022/04/06 14:23:38;;;;;;;1.38;0.52;;;;;;;19.89;37.40;99855.09;16147725;19;129500;-44
2022/04/06 14:29:00;;;;;;;0.93;0.40;;;;;;;20.03;36.91;99840.66;16147534;19;129087;-44
2022/04/06 14:34:22;;;;;;;1.10;0.40;;;;;;;20.14;37.22;99845.06;16150099;19;129334;-47
2022/04/06 14:39:44;;;;;;;0.60;0.30;;;;;;;20.22;37.09;99832.56;16146987;19;129798;-46
2022/04/06 14:45:07;;;;;;;0.95;0.30;;;;;;;20.29;36.68;99833.91;16145231;19;128954;-42
2022/04/06 14:50:29;;;;;;;1.25;0.30;;;;;;;20.38;36.72;99824.97;16147624;19;129424;-47
2022/04/06 14:55:51;;;;;;;0.95;0.30;;;;;;;20.43;36.22;99824.97;16146593;19;129937;-43
2022/04/06 15:01:12;;;;;;;0.77;0.20;;;;;;;20.48;36.50;99815.78;16144059;19;130079;-44
2022/04/06 15:06:34;;;;;;;0.47;0.20;;;;;;;20.52;36.37;99814.91;16143376;19;130140;-49
2022/04/06 15:11:56;;;;;;;0.82;0.30;;;;;;;20.55;36.11;99808.78;16147399;19;129392;-44
2022/04/06 15:17:18;;;;;;;0.68;0.30;;;;;;;20.60;36.01;99802.34;16147006;19;129154;-46
2022/04/06 15:22:40;;;;;;;1.60;0.28;;;;;;;20.63;36.21;99795.38;16145449;19;130147;-49
2022/04/06 15:28:01;;;;;;;1.25;0.30;;;;;;;20.65;36.39;99790.38;16145361;19;129576;-43
2022/04/06 15:33:23;;;;;;;0.35;0.25;;;;;;;20.64;36.12;99794.28;16145974;19;129327;-47
2022/04/06 15:38:45;;;;;;;0.57;0.40;;;;;;;20.62;36.09;99794.53;16144859;19;129319;-45
2022/04/06 15:44:06;;;;;;;0.57;0.30;;;;;;;20.55;36.45;99780.16;16143660;19;130322;-45
2022/04/06 15:49:28;;;;;;;0.88;0.47;;;;;;;20.50;36.35;99781.00;16145478;19;129562;-43
2022/04/06 15:54:51;;;;;;;0.35;0.20;;;;;;;20.44;36.43;99774.66;16145464;19;131614;-42
2022/04/06 16:00:13;;;;;;;2.13;0.40;;;;;;;20.39;36.34;99762.75;16142053;19;129343;-46
2022/04/06 16:05:35;;;;;;;0.45;0.20;;;;;;;20.34;36.39;99765.53;16141999;19;129167;-44
2022/04/06 16:10:57;;;;;;;0.43;0.40;;;;;;;20.29;36.89;99770.03;16139635;19;129831;-45
2022/04/06 16:16:22;;;;;;;0.83;0.40;;;;;;;20.22;36.87;99747.28;16142162;19;129291;-43
2022/04/06 16:21:44;;;;;;;1.20;0.40;;;;;;;20.18;36.88;99746.22;16141005;19;129337;-47
2022/04/06 16:27:06;;;;;;;0.43;0.20;;;;;;;20.14;36.64;99756.22;16132694;19;129325;-45
2022/04/06 16:32:27;;;;;;;1.92;0.47;;;;;;;20.10;36.23;99752.34;16137727;19;131875;-44
2022/04/06 16:37:50;;;;;;;3.25;0.73;;;;;;;20.12;35.69;99742.59;16139728;19;130334;-44
2022/04/06 16:43:11;;;;;;;4.45;1.15;;;;;;;20.13;35.86;99710.94;16140746;19;129759;-44
2022/04/06 16:48:33;;;;;;;15.65;4.40;;;;;;;20.17;36.59;99700.13;16133123;19;129381;-43
2022/04/06 16:53:55;;;;;;;14.82;5.18;;;;;;;20.20;36.80;99687.59;16138398;19;129063;-43
2022/04/06 16:59:18;;;;;;;13.38;4.55;;;;;;;20.22;37.15;99669.53;16137695;19;129067;-43
2022/04/06 17:04:39;;;;;;;14.80;3.63;;;;;;;20.22;36.82;99669.53;16131409;19;129430;-43
2022/04/06 17:10:01;;;;;;;16.17;4.05;;;;;;;20.22;36.91;99668.72;16138441;19;129447;-43
2022/04/06 17:15:24;;;;;;;11.35;3.15;;;;;;;20.21;37.30;99664.25;16137065;19;129389;-48
2022/04/06 17:20:46;;;;;;;10.80;3.10;;;;;;;20.19;37.34;99678.41;16138766;19;129323;-43
2022/04/06 17:26:08;;;;;;;12.98;3.40;;;;;;;20.17;37.00;99672.34;16133489;19;129706;-43
2022/04/06 17:31:30;;;;;;;10.75;3.00;;;;;;;20.14;37.05;99659.84;16134068;19;129395;-42
2022/04/06 17:37:08;;;;;;;6.50;2.08;;;;;;;20.16;37.04;99653.19;16135044;19;130231;-45
2022/04/06 17:42:30;;;;;;;11.18;2.30;;;;;;;20.18;37.23;99645.41;16136192;19;129818;-46
2022/04/06 17:48:01;;;;;;;7.82;2.30;;;;;;;20.16;37.35;99645.69;16145239;19;128919;-42
2022/04/06 17:53:23;;;;;;;6.90;2.15;;;;;;;20.13;37.49;99626.84;16148650;19;129662;-44
2022/04/06 17:58:45;;;;;;;9.57;2.05;;;;;;;20.11;37.25;99623.50;16146257;19;129452;-41
2022/04/06 18:04:07;;;;;;;6.85;2.28;;;;;;;20.10;37.28;99628.25;16139294;19;129470;-44
2022/04/06 18:09:29;;;;;;;6.80;1.75;;;;;;;20.11;37.92;99629.06;16149252;19;129518;-44
2022/04/06 18:14:51;;;;;;;12.15;2.22;;;;;;;20.10;37.62;99610.75;16148210;19;129741;-42
2022/04/06 18:20:14;;;;;;;6.82;1.70;;;;;;;20.10;38.00;99605.19;16148409;19;129151;-44
2022/04/06 18:25:36;;;;;;;9.48;1.38;;;;;;;20.05;37.68;99583.03;16143498;19;131016;-42
2022/04/06 18:30:58;;;;;;;3.80;1.52;;;;;;;20.02;38.26;99600.25;16145831;19;129722;-43
2022/04/06 18:36:20;;;;;;;4.20;1.55;;;;;;;20.01;38.13;99596.63;16146102;19;129115;-42
2022/04/06 18:41:42;;;;;;;5.68;1.10;;;;;;;19.98;38.19;99597.19;16143949;19;129625;-42
2022/04/06 18:47:05;;;;;;;4.50;1.23;;;;;;;19.95;38.01;99593.03;16142377;19;131142;-45
2022/04/06 18:52:27;;;;;;;5.20;1.35;;;;;;;19.94;38.39;99605.25;16143670;19;129431;-42
2022/04/06 18:57:49;;;;;;;5.65;1.00;;;;;;;19.95;38.41;99597.78;16143245;19;130465;-43
2022/04/06 19:03:14;;;;;;;3.90;0.95;;;;;;;19.93;38.06;99591.66;16141538;19;130748;-42
2022/04/06 19:08:42;;;;;;;4.95;0.90;;;;;;;19.91;38.42;99591.97;16137653;19;130285;-43
2022/04/06 19:14:04;;;;;;;4.30;0.90;;;;;;;19.91;38.57;99577.25;16142299;19;129478;-43
2022/04/06 19:19:26;;;;;;;3.47;0.90;;;;;;;19.89;38.45;99583.09;16142619;19;130126;-42
2022/04/06 19:24:49;;;;;;;2.65;0.90;;;;;;;19.89;38.25;99576.69;16142890;19;132170;-43
2022/04/06 19:30:12;;;;;;;2.90;1.10;;;;;;;19.88;38.21;99570.34;16142462;19;130586;-41
2022/04/06 19:35:33;;;;;;;5.38;1.20;;;;;;;19.85;37.94;99565.34;16143434;19;129310;-45
2022/04/06 19:40:55;;;;;;;8.18;1.55;;;;;;;19.84;37.99;99570.09;16142263;19;129204;-47
2022/04/06 19:46:19;;;;;;;2.45;1.05;;;;;;;19.82;38.14;99569.53;16138333;19;129330;-45
2022/04/06 19:51:41;;;;;;;9.57;1.60;;;;;;;19.80;38.04;99562.63;16142223;19;132365;-43
2022/04/06 19:57:04;;;;;;;5.75;1.60;;;;;;;19.84;38.48;99563.69;16140137;19;129539;-43
2022/04/06 20:02:26;;;;;;;3.85;1.08;;;;;;;19.99;38.50;99544.19;16140042;19;130197;-42
2022/04/06 20:07:47;;;;;;;3.72;1.52;;;;;;;20.17;38.27;99541.84;16134161;19;129022;-46
2022/04/06 20:13:09;;;;;;;4.03;1.13;;;;;;;20.33;38.00;99538.91;16137613;19;131077;-46
2022/04/06 20:18:31;;;;;;;4.78;0.90;;;;;;;20.46;37.45;99518.78;16134737;19;129646;-43
2022/04/06 20:23:53;;;;;;;4.57;1.48;;;;;;;20.56;37.58;99518.69;16135176;19;129849;-40
2022/04/06 20:29:15;;;;;;;6.85;1.10;;;;;;;20.70;37.61;99521.59;16138439;19;129729;-42
2022/04/06 20:34:37;;;;;;;6.70;1.00;;;;;;;20.81;37.37;99519.56;16135881;19;130743;-43
2022/04/06 20:39:59;;;;;;;5.28;1.23;;;;;;;20.84;36.76;99521.75;16137823;19;129553;-47
2022/04/06 20:45:21;;;;;;;4.53;1.15;;;;;;;20.83;36.70;99502.59;16135795;19;129705;-46
2022/04/06 20:50:43;;;;;;;8.93;1.42;;;;;;;20.77;37.18;99496.28;16138451;19;130359;-46
2022/04/06 20:56:05;;;;;;;7.35;1.10;;;;;;;20.68;37.16;99475.75;16135632;19;130673;-45
2022/04/06 21:01:28;;;;;;;4.40;1.13;;;;;;;20.58;36.85;99477.53;16137688;19;129004;-42
2022/04/06 21:06:50;;;;;;;3.80;0.98;;;;;;;20.49;37.08;99465.44;16133022;19;129616;-45
2022/04/06 21:12:12;;;;;;;3.30;0.90;;;;;;;20.39;36.92;99462.75;16136927;19;129396;-46
2022/04/06 21:17:33;;;;;;;2.95;0.82;;;;;;;20.29;37.20;99456.19;16134407;19;129764;-42
2022/04/06 21:22:55;;;;;;;3.80;1.30;;;;;;;20.21;36.84;99434.59;16137036;19;130044;-46
2022/04/06 21:28:17;;;;;;;2.17;1.20;;;;;;;20.13;37.18;99429.69;16130709;19;129329;-41
2022/04/06 21:33:39;;;;;;;2.78;1.10;;;;;;;20.05;37.16;99425.59;16136005;19;130568;-45
2022/04/06 21:39:01;;;;;;;0.90;0.68;;;;;;;19.97;36.98;99421.47;16134678;19;129870;-45
2022/04/06 21:44:23;;;;;;;1.88;1.00;;;;;;;19.90;37.07;99407.13;16133795;19;130624;-44
2022/04/06 21:49:45;;;;;;;3.15;1.15;;;;;;;19.86;37.04;99400.50;16135267;19;130424;-42
2022/04/06 21:55:08;;;;;;;1.55;0.85;;;;;;;19.81;36.96;99383.91;16135146;19;129817;-44
2022/04/06 22:00:33;;;;;;;1.75;1.10;;;;;;;19.78;37.19;99393.63;16133941;19;129882;-44
2022/04/06 22:06:06;;;;;;;1.77;0.98;;;;;;;19.74;37.24;99392.56;16129154;19;129985;-45
2022/04/06 22:11:28;;;;;;;1.50;0.90;;;;;;;19.71;36.87;99375.66;16133330;19;129831;-48
2022/04/06 22:16:49;;;;;;;1.30;0.88;;;;;;;19.67;37.15;99365.16;16134668;19;129419;-48
2022/04/06 22:22:11;;;;;;;2.70;0.85;;;;;;;19.63;36.78;99364.09;16133989;19;129640;-46
2022/04/06 22:27:33;;;;;;;1.70;0.80;;;;;;;19.60;36.91;99361.88;16133208;19;128893;-45
2022/04/06 22:32:54;;;;;;;1.10;0.88;;;;;;;19.56;37.07;99344.19;16148502;19;129404;-42
2022/04/06 22:38:16;;;;;;;1.55;0.70;;;;;;;19.52;36.77;99345.88;16148221;19;129046;-45
2022/04/06 22:43:38;;;;;;;1.15;0.60;;;;;;;19.51;36.69;99338.69;16145666;19;129815;-48
2022/04/06 22:49:00;;;;;;;1.23;0.80;;;;;;;19.49;37.05;99341.75;16143344;19;130357;-43
2022/04/06 22:54:22;;;;;;;1.77;0.90;;;;;;;19.46;36.63;99330.38;16141214;19;129309;-44
2022/04/06 22:59:44;;;;;;;1.30;0.65;;;;;;;19.43;36.70;99322.66;16145950;19;129440;-43
2022/04/06 23:05:07;;;;;;;0.57;0.50;;;;;;;19.38;37.02;99318.81;16141976;19;129517;-45
2022/04/06 23:10:28;;;;;;;0.85;0.60;;;;;;;19.37;36.45;99305.25;16146077;19;129551;-44
2022/04/06 23:15:50;;;;;;;1.63;0.60;;;;;;;19.33;36.43;99313.31;16145245;19;130083;-44
2022/04/06 23:21:12;;;;;;;1.10;0.50;;;;;;;19.30;36.79;99311.13;16144958;19;129429;-45
2022/04/06 23:26:34;;;;;;;0.93;0.63;;;;;;;19.26;36.64;99287.88;16144036;19;128998;-42
2022/04/06 23:31:56;;;;;;;1.33;0.52;;;;;;;19.26;36.64;99285.09;16143958;19;130073;-43
2022/04/06 23:37:17;;;;;;;1.48;0.60;;;;;;;19.24;36.72;99275.41;16144446;19;130272;-44
2022/04/06 23:42:42;;;;;;;0.47;0.32;;;;;;;19.21;36.75;99266.56;16144299;19;130689;-42
2022/04/06 23:48:04;;;;;;;1.45;0.40;;;;;;;19.19;36.76;99267.94;16139871;19;129050;-45
2022/04/06 23:53:25;;;;;;;1.40;0.40;;;;;;;19.17;36.28;99262.69;16143887;19;130165;-43
2022/04/06 23:58:47;;;;;;;2.72;0.63;;;;;;;19.15;36.31;99253.00;16143779;19;130680;-45
